Time;durP1;ratioP1;P1;durP2;ratioP2;P2;SDS_P1;SDS_P2;PMS_P1;PMS_P2;Temp;Humidity;BMP_temperature;BMP_pressure;BME280_temperature;BME280_humidity;BME280_pressure;Samples;Min_cycle;Max_cycle;Signal;HPM_P1;HPM_P2
2020/12/21 00:01:28;;;;;;;12.18;3.28;;;7.00;99.90;;;;;;5060416;28;20199;-83
2020/12/21 00:03:54;;;;;;;15.02;3.67;;;7.00;99.90;;;;;;5059621;28;20229;-83
2020/12/21 00:06:20;;;;;;;10.13;4.45;;;6.90;99.90;;;;;;5059896;28;20195;-83
2020/12/21 00:08:47;;;;;;;8.02;2.92;;;7.00;99.90;;;;;;5060399;28;20683;-83
2020/12/21 00:11:13;;;;;;;17.88;4.10;;;6.90;99.90;;;;;;5060308;28;20206;-83
2020/12/21 00:13:43;;;;;;;12.00;3.45;;;6.90;99.90;;;;;;5059716;28;20197;-83
2020/12/21 00:16:10;;;;;;;11.60;3.38;;;6.90;99.90;;;;;;5060037;28;20591;-82
2020/12/21 00:18:36;;;;;;;8.43;3.85;;;6.90;99.90;;;;;;5060406;28;20237;-84
2020/12/21 00:21:02;;;;;;;11.30;3.60;;;6.80;99.90;;;;;;5061464;28;20203;-84
2020/12/21 00:23:28;;;;;;;6.85;3.50;;;6.80;99.90;;;;;;5060485;28;20218;-82
2020/12/21 00:25:55;;;;;;;8.02;3.80;;;6.80;99.90;;;;;;5061892;28;20206;-83
2020/12/21 00:28:22;;;;;;;16.13;3.35;;;6.80;99.90;;;;;;5061036;28;20198;-81
2020/12/21 00:30:48;;;;;;;8.85;3.95;;;6.90;99.90;;;;;;5061166;28;20202;-83
2020/12/21 00:33:14;;;;;;;12.52;4.25;;;6.80;99.90;;;;;;5061228;28;20215;-84
2020/12/21 00:35:41;;;;;;;7.93;4.40;;;6.80;99.90;;;;;;5061417;28;20194;-84
2020/12/21 00:38:08;;;;;;;11.50;3.70;;;6.80;99.90;;;;;;5060748;28;20214;-84
2020/12/21 00:40:34;;;;;;;12.63;4.50;;;6.70;99.90;;;;;;5061551;28;20615;-85
2020/12/21 00:43:01;;;;;;;13.68;4.30;;;6.80;99.90;;;;;;5061226;28;20631;-83
2020/12/21 00:45:27;;;;;;;13.75;3.58;;;6.70;99.90;;;;;;5062273;28;20572;-86
2020/12/21 00:47:54;;;;;;;14.52;3.13;;;6.70;99.90;;;;;;5061486;28;20199;-85
2020/12/21 00:50:20;;;;;;;9.77;3.42;;;6.70;99.90;;;;;;5061995;28;20254;-84
2020/12/21 00:52:47;;;;;;;7.43;3.55;;;6.60;99.90;;;;;;5062092;28;20283;-84
2020/12/21 00:55:13;;;;;;;8.40;3.45;;;6.60;99.90;;;;;;5062694;28;20199;-83
2020/12/21 00:57:39;;;;;;;11.93;3.67;;;6.60;99.90;;;;;;5062661;28;20249;-81
2020/12/21 01:00:08;;;;;;;17.02;5.03;;;6.60;99.90;;;;;;5062144;28;20198;-83
2020/12/21 01:02:34;;;;;;;5.57;2.90;;;6.50;99.90;;;;;;5062516;28;20218;-83
2020/12/21 01:05:00;;;;;;;11.32;3.75;;;6.60;99.90;;;;;;5062960;28;20194;-84
2020/12/21 01:07:27;;;;;;;13.23;3.80;;;6.50;99.90;;;;;;5062915;28;20195;-85
2020/12/21 01:09:53;;;;;;;9.95;3.65;;;6.50;99.90;;;;;;5062477;28;20264;-85
2020/12/21 01:12:19;;;;;;;11.43;3.30;;;6.50;99.90;;;;;;5061940;28;20993;-86
2020/12/21 01:14:45;;;;;;;10.30;3.35;;;6.50;99.90;;;;;;5062472;28;20196;-85
2020/12/21 01:17:13;;;;;;;4.75;3.05;;;6.40;99.90;;;;;;5064025;28;20226;-84
2020/12/21 01:19:39;;;;;;;10.15;3.45;;;6.50;99.90;;;;;;5063384;28;20267;-84
2020/12/21 01:22:06;;;;;;;10.73;3.70;;;6.40;99.90;;;;;;5062874;28;20214;-82
2020/12/21 01:24:32;;;;;;;11.77;3.67;;;6.40;99.90;;;;;;5061879;28;20194;-84
2020/12/21 01:26:59;;;;;;;16.35;4.80;;;6.40;99.90;;;;;;5060978;28;20198;-86
2020/12/21 01:29:25;;;;;;;14.10;4.03;;;6.40;99.90;;;;;;5061743;28;20216;-82
2020/12/21 01:31:51;;;;;;;9.38;4.00;;;6.40;99.90;;;;;;5061403;28;20215;-85
2020/12/21 01:34:18;;;;;;;4.30;2.90;;;6.40;99.90;;;;;;5062067;28;20614;-87
2020/12/21 01:36:44;;;;;;;11.10;3.67;;;6.40;99.90;;;;;;5060755;28;20203;-85
2020/12/21 01:39:11;;;;;;;18.48;4.38;;;6.40;99.90;;;;;;5061649;28;20583;-86
2020/12/21 01:41:37;;;;;;;12.35;3.65;;;6.30;99.90;;;;;;5061557;28;20236;-84
2020/12/21 01:44:03;;;;;;;14.90;3.65;;;6.30;99.90;;;;;;5061950;28;20194;-84
2020/12/21 01:46:31;;;;;;;13.10;4.03;;;6.40;99.90;;;;;;5061189;28;20194;-84
2020/12/21 01:48:57;;;;;;;6.10;2.95;;;6.30;99.90;;;;;;5061762;28;20191;-85
2020/12/21 01:51:28;;;;;;;12.65;3.20;;;6.30;99.90;;;;;;5061184;28;20222;-83
2020/12/21 01:53:55;;;;;;;12.90;3.35;;;6.30;99.90;;;;;;5062335;28;20212;-84
2020/12/21 01:56:23;;;;;;;12.63;3.70;;;6.30;99.90;;;;;;5066186;28;20191;-86
2020/12/21 01:58:49;;;;;;;10.02;3.17;;;6.30;99.90;;;;;;5048013;28;20218;-85
2020/12/21 02:01:17;;;;;;;11.50;3.80;;;6.20;99.90;;;;;;5066383;28;20195;-84
2020/12/21 02:03:44;;;;;;;7.95;3.08;;;6.20;99.90;;;;;;5067558;28;20206;-83
2020/12/21 02:06:11;;;;;;;7.07;3.75;;;6.20;99.90;;;;;;5066017;28;20565;-86
2020/12/21 02:08:38;;;;;;;6.45;3.30;;;6.20;99.90;;;;;;5065832;28;20198;-84
2020/12/21 02:11:05;;;;;;;6.20;2.60;;;6.20;99.90;;;;;;5065211;28;20204;-85
2020/12/21 02:13:32;;;;;;;12.90;3.60;;;6.20;99.90;;;;;;5066500;28;20226;-83
2020/12/21 02:16:00;;;;;;;13.93;3.35;;;6.20;99.90;;;;;;5065954;28;20191;-83
2020/12/21 02:18:27;;;;;;;16.08;3.15;;;6.30;99.90;;;;;;5066211;28;20217;-84
2020/12/21 02:20:54;;;;;;;10.52;2.80;;;6.30;99.90;;;;;;5066103;28;20205;-82
2020/12/21 02:23:20;;;;;;;9.98;3.00;;;6.30;99.90;;;;;;5065908;28;20214;-84
2020/12/21 02:25:46;;;;;;;14.68;3.30;;;6.30;99.90;;;;;;5066337;28;20255;-85
2020/12/21 02:28:13;;;;;;;10.70;3.92;;;6.30;99.90;;;;;;5065484;28;20205;-84
2020/12/21 02:30:39;;;;;;;9.88;3.47;;;6.30;99.90;;;;;;5066207;28;20203;-83
2020/12/21 02:33:06;;;;;;;7.32;2.80;;;6.30;99.90;;;;;;5065457;28;20215;-83
2020/12/21 02:35:33;;;;;;;18.55;4.28;;;6.40;99.90;;;;;;5066220;28;20202;-86
2020/12/21 02:38:01;;;;;;;13.18;3.00;;;6.40;99.90;;;;;;5065571;28;20703;-83
2020/12/21 02:40:27;;;;;;;5.72;2.10;;;6.40;99.90;;;;;;5065846;28;20205;-85
2020/12/21 02:42:53;;;;;;;9.45;3.25;;;6.50;99.90;;;;;;5065844;28;20207;-84
2020/12/21 02:45:20;;;;;;;6.25;2.67;;;6.50;99.90;;;;;;5065549;28;20730;-83
2020/12/21 02:47:46;;;;;;;6.45;2.88;;;6.50;99.90;;;;;;5065782;28;20217;-84
2020/12/21 02:50:12;;;;;;;4.65;2.90;;;6.50;99.90;;;;;;5066234;28;20224;-84
2020/12/21 02:52:39;;;;;;;7.30;2.67;;;6.50;99.90;;;;;;5065598;28;20218;-83
2020/12/21 02:55:07;;;;;;;13.43;3.95;;;6.50;99.90;;;;;;5065869;28;20201;-85
2020/12/21 02:57:33;;;;;;;7.18;3.17;;;6.50;99.90;;;;;;5065307;28;20194;-83
2020/12/21 03:00:00;;;;;;;4.75;2.75;;;6.50;99.90;;;;;;5065974;28;20198;-83
2020/12/21 03:02:26;;;;;;;7.35;3.60;;;6.40;99.90;;;;;;5065636;28;20274;-85
2020/12/21 03:04:52;;;;;;;5.05;2.20;;;6.50;99.90;;;;;;5065713;28;20199;-86
2020/12/21 03:07:18;;;;;;;4.43;2.13;;;6.40;99.90;;;;;;5066196;28;20673;-83
2020/12/21 03:09:45;;;;;;;16.75;3.00;;;6.40;99.90;;;;;;5066149;28;20195;-85
2020/12/21 03:12:12;;;;;;;8.73;3.15;;;6.30;99.90;;;;;;5065775;28;20229;-87
2020/12/21 03:14:38;;;;;;;13.45;3.97;;;6.40;99.90;;;;;;5065285;28;20268;-83
2020/12/21 03:19:34;;;;;;;9.80;3.05;;;6.30;99.90;;;;;;5037848;28;20218;-79
2020/12/21 03:22:01;;;;;;;6.32;2.92;;;6.30;99.90;;;;;;5046104;28;20199;-79
2020/12/21 03:24:27;;;;;;;8.85;2.80;;;6.20;99.90;;;;;;5053497;28;20195;-80
2020/12/21 03:26:53;;;;;;;7.40;2.88;;;6.20;99.90;;;;;;5048641;28;20206;-79
2020/12/21 03:29:20;;;;;;;20.35;4.38;;;6.20;99.90;;;;;;5049256;28;20211;-78
2020/12/21 03:31:46;;;;;;;3.85;2.60;;;6.20;99.90;;;;;;5045920;28;20199;-80
2020/12/21 03:34:13;;;;;;;9.32;3.67;;;6.30;99.90;;;;;;5045372;28;20227;-78
2020/12/21 03:36:40;;;;;;;16.40;3.00;;;6.20;99.90;;;;;;5044786;28;20233;-79
2020/12/21 03:39:06;;;;;;;8.43;2.53;;;6.30;99.90;;;;;;5046329;28;20310;-79
2020/12/21 03:41:33;;;;;;;6.22;2.55;;;6.20;99.90;;;;;;5047920;28;20200;-80
2020/12/21 03:43:59;;;;;;;13.50;3.25;;;6.20;99.90;;;;;;5044462;28;20202;-79
2020/12/21 03:46:26;;;;;;;9.82;2.75;;;6.20;99.90;;;;;;5042955;28;20199;-80
2020/12/21 03:48:53;;;;;;;6.18;2.72;;;6.30;99.90;;;;;;5042319;28;20207;-78
2020/12/21 03:51:19;;;;;;;10.88;2.47;;;6.30;99.90;;;;;;5042813;28;20191;-79
2020/12/21 03:53:45;;;;;;;6.65;2.70;;;6.20;99.90;;;;;;5044510;28;20191;-79
2020/12/21 03:56:12;;;;;;;6.32;2.70;;;6.20;99.90;;;;;;5043720;28;20207;-79
2020/12/21 03:58:38;;;;;;;11.05;3.25;;;6.20;99.90;;;;;;5043019;28;20570;-79
2020/12/21 04:01:05;;;;;;;8.35;2.50;;;6.20;99.90;;;;;;5043357;28;20197;-79
2020/12/21 04:03:32;;;;;;;3.90;2.40;;;6.20;99.90;;;;;;5042852;28;20195;-78
2020/12/21 04:05:59;;;;;;;6.70;1.77;;;6.20;99.90;;;;;;5042013;28;20195;-79
2020/12/21 04:08:25;;;;;;;9.57;2.30;;;6.20;99.90;;;;;;5043414;28;20207;-80
2020/12/21 04:10:51;;;;;;;8.18;2.20;;;6.20;99.90;;;;;;5042750;28;20195;-78
2020/12/21 04:13:18;;;;;;;9.82;2.85;;;6.20;99.90;;;;;;5042785;28;20199;-79
2020/12/21 04:15:44;;;;;;;10.43;2.03;;;6.20;99.90;;;;;;5041874;28;20199;-77
2020/12/21 04:18:10;;;;;;;10.38;2.67;;;6.20;99.90;;;;;;5040245;28;20215;-79
2020/12/21 04:20:37;;;;;;;6.55;2.47;;;6.30;99.90;;;;;;5042628;28;20195;-79
2020/12/21 04:23:03;;;;;;;9.85;2.17;;;6.30;99.90;;;;;;5035629;28;20203;-79
2020/12/21 04:25:30;;;;;;;8.18;2.63;;;6.40;99.90;;;;;;5032826;28;20221;-79
2020/12/21 04:27:56;;;;;;;7.10;2.58;;;6.40;99.90;;;;;;5039627;28;20265;-78
2020/12/21 04:30:23;;;;;;;7.18;2.00;;;6.40;99.90;;;;;;5039879;28;20294;-78
2020/12/21 04:32:49;;;;;;;4.38;2.20;;;6.40;99.90;;;;;;5040719;28;20195;-79
2020/12/21 04:35:15;;;;;;;8.65;2.55;;;6.40;99.90;;;;;;5041176;28;20203;-78
2020/12/21 04:37:42;;;;;;;5.40;1.73;;;6.50;99.90;;;;;;5019786;28;20582;-79
2020/12/21 04:40:09;;;;;;;7.90;2.30;;;6.40;99.90;;;;;;5021281;28;20594;-79
2020/12/21 04:42:46;;;;;;;7.00;2.90;;;6.40;99.90;;;;;;5021291;28;20200;-79
2020/12/21 04:45:13;;;;;;;7.45;2.00;;;6.50;99.90;;;;;;5021176;28;20199;-78
2020/12/21 04:47:42;;;;;;;6.68;1.95;;;6.40;99.90;;;;;;5023800;28;20574;-79
2020/12/21 04:50:10;;;;;;;3.75;1.50;;;6.40;99.90;;;;;;5041164;28;20257;-79
2020/12/21 04:52:47;;;;;;;4.82;1.85;;;6.30;99.90;;;;;;5041784;28;20191;-78
2020/12/21 04:55:16;;;;;;;8.27;2.08;;;6.30;99.90;;;;;;5040874;28;20184;-77
2020/12/21 04:57:53;;;;;;;12.75;2.08;;;6.40;99.90;;;;;;5040476;28;20218;-79
2020/12/21 05:00:19;;;;;;;7.63;2.88;;;6.40;99.90;;;;;;5044255;28;20233;-78
2020/12/21 05:02:46;;;;;;;6.53;2.47;;;6.40;99.90;;;;;;5040501;28;20195;-79
2020/12/21 05:05:12;;;;;;;8.18;2.58;;;6.40;99.90;;;;;;5040511;28;20202;-78
2020/12/21 05:07:38;;;;;;;5.07;1.92;;;6.40;99.90;;;;;;5040464;28;20211;-79
2020/12/21 05:10:07;;;;;;;8.73;2.70;;;6.40;99.90;;;;;;5039714;28;20257;-78
2020/12/21 05:12:33;;;;;;;3.72;1.95;;;6.40;99.90;;;;;;5040606;28;20200;-79
2020/12/21 05:14:59;;;;;;;5.88;2.70;;;6.40;99.90;;;;;;5041523;28;20214;-79
2020/12/21 05:17:25;;;;;;;8.65;2.00;;;6.40;99.90;;;;;;5040435;28;20215;-79
2020/12/21 05:20:02;;;;;;;9.68;3.47;;;6.40;99.90;;;;;;5039949;28;20212;-79
2020/12/21 05:22:28;;;;;;;4.55;2.15;;;6.40;99.90;;;;;;5041133;28;20187;-78
2020/12/21 05:25:05;;;;;;;5.05;2.55;;;6.50;99.90;;;;;;5042015;28;20542;-78
2020/12/21 05:27:31;;;;;;;11.65;2.55;;;6.50;99.90;;;;;;5040621;28;20245;-78
2020/12/21 05:29:58;;;;;;;8.60;2.10;;;6.50;99.90;;;;;;5043792;28;20195;-78
2020/12/21 05:32:25;;;;;;;4.80;1.90;;;6.60;99.90;;;;;;5044747;28;20218;-79
2020/12/21 05:34:51;;;;;;;4.80;1.90;;;6.60;99.90;;;;;;5045190;28;20192;-79
2020/12/21 05:37:19;;;;;;;9.13;2.50;;;6.60;99.90;;;;;;5043937;28;20195;-79
2020/12/21 05:39:53;;;;;;;5.97;2.75;;;6.70;99.90;;;;;;5045272;28;20215;-80
2020/12/21 05:42:20;;;;;;;8.65;2.17;;;6.70;99.90;;;;;;5045063;28;20183;-79
2020/12/21 05:44:54;;;;;;;6.72;2.10;;;6.70;99.90;;;;;;5044869;28;20191;-78
2020/12/21 05:47:21;;;;;;;4.50;2.05;;;6.70;99.90;;;;;;5044786;28;20222;-78
2020/12/21 05:49:56;;;;;;;6.22;1.90;;;6.70;99.90;;;;;;5045543;28;20222;-79
2020/12/21 05:52:33;;;;;;;6.85;2.30;;;6.70;99.90;;;;;;5026431;28;20195;-78
2020/12/21 05:55:05;;;;;;;6.40;1.95;;;6.80;99.90;;;;;;5025981;28;20184;-80
2020/12/21 05:57:33;;;;;;;6.25;2.30;;;6.80;99.90;;;;;;5025910;28;20567;-79
2020/12/21 06:00:01;;;;;;;10.63;2.38;;;6.70;99.90;;;;;;5025738;28;20224;-79
2020/12/21 06:02:32;;;;;;;3.63;1.70;;;6.80;99.90;;;;;;5025786;28;20624;-79
2020/12/21 06:05:04;;;;;;;10.07;2.67;;;6.80;99.90;;;;;;5027041;28;20188;-79
2020/12/21 06:07:32;;;;;;;4.85;1.85;;;6.90;99.90;;;;;;5031866;28;20226;-79
2020/12/21 06:10:01;;;;;;;5.50;2.20;;;7.00;99.90;;;;;;5026253;28;20200;-79
2020/12/21 06:12:29;;;;;;;7.50;2.20;;;7.00;99.90;;;;;;5023800;28;20200;-79
2020/12/21 06:15:01;;;;;;;4.30;1.55;;;7.00;99.90;;;;;;5024498;28;20204;-78
2020/12/21 06:17:29;;;;;;;5.78;2.30;;;7.00;99.90;;;;;;5025788;28;20299;-79
2020/12/21 06:20:04;;;;;;;7.82;2.42;;;7.00;99.90;;;;;;5046867;28;20214;-80
2020/12/21 06:22:30;;;;;;;8.80;3.30;;;7.00;99.90;;;;;;5046458;28;20194;-78
2020/12/21 06:24:56;;;;;;;2.65;1.60;;;7.10;99.90;;;;;;5043312;28;20192;-78
2020/12/21 06:27:24;;;;;;;8.55;2.33;;;7.00;99.90;;;;;;5041279;28;20709;-78
2020/12/21 06:29:59;;;;;;;9.85;2.13;;;7.00;99.90;;;;;;5040571;28;20195;-78
2020/12/21 06:32:30;;;;;;;8.73;1.95;;;7.00;99.90;;;;;;5040307;28;20588;-78
2020/12/21 06:34:56;;;;;;;5.97;3.05;;;7.00;99.90;;;;;;5041909;28;20187;-79
2020/12/21 06:37:23;;;;;;;6.38;2.45;;;7.00;99.90;;;;;;5041336;28;20223;-78
2020/12/21 06:39:58;;;;;;;5.70;1.55;;;7.00;99.90;;;;;;5041685;28;20712;-77
2020/12/21 06:42:25;;;;;;;4.30;1.67;;;7.00;99.90;;;;;;5039094;28;20202;-78
2020/12/21 06:44:54;;;;;;;5.70;2.10;;;7.00;99.90;;;;;;5036834;28;20192;-77
2020/12/21 06:47:22;;;;;;;8.38;4.03;;;7.00;99.90;;;;;;5038251;28;20191;-76
2020/12/21 06:49:49;;;;;;;5.72;1.92;;;7.00;99.90;;;;;;5037461;28;20565;-78
2020/12/21 06:52:17;;;;;;;9.65;2.22;;;6.90;99.90;;;;;;5031897;28;20767;-79
2020/12/21 06:54:44;;;;;;;8.10;3.75;;;6.90;99.90;;;;;;5039841;28;20249;-78
2020/12/21 06:57:11;;;;;;;3.25;1.60;;;6.90;99.90;;;;;;5038862;28;20199;-78
2020/12/21 06:59:38;;;;;;;4.30;1.80;;;6.90;99.90;;;;;;5040146;28;20207;-78
2020/12/21 07:02:04;;;;;;;3.55;1.63;;;6.90;99.90;;;;;;5040352;28;20682;-78
2020/12/21 07:04:33;;;;;;;7.07;2.38;;;6.90;99.90;;;;;;5040082;28;20290;-78
2020/12/21 07:07:03;;;;;;;5.57;1.85;;;6.90;99.90;;;;;;5040679;28;20195;-79
2020/12/21 07:09:30;;;;;;;5.78;2.33;;;6.90;99.90;;;;;;5037782;28;20196;-78
2020/12/21 07:11:58;;;;;;;10.23;2.00;;;6.90;99.90;;;;;;5038691;28;20196;-77
2020/12/21 07:14:26;;;;;;;7.65;2.38;;;6.90;99.90;;;;;;5036917;28;20195;-78
2020/12/21 07:17:06;;;;;;;9.20;2.10;;;7.00;99.90;;;;;;5036183;28;20203;-77
2020/12/21 07:19:34;;;;;;;3.67;2.03;;;7.00;99.90;;;;;;5034787;28;20246;-78
2020/12/21 07:22:03;;;;;;;5.05;2.00;;;7.00;99.90;;;;;;5035516;28;20187;-78
2020/12/21 07:24:29;;;;;;;3.90;2.00;;;6.90;99.90;;;;;;5034713;28;20196;-77
2020/12/21 07:26:55;;;;;;;4.32;1.95;;;6.90;99.90;;;;;;5035474;28;20222;-77
2020/12/21 07:29:22;;;;;;;9.88;3.55;;;6.90;99.90;;;;;;5035352;28;20574;-78
2020/12/21 07:31:49;;;;;;;5.05;1.85;;;6.90;99.90;;;;;;5034844;28;20585;-77
2020/12/21 07:34:15;;;;;;;6.97;2.78;;;6.90;99.90;;;;;;5034734;28;20207;-77
2020/12/21 07:36:42;;;;;;;5.10;2.72;;;6.90;99.90;;;;;;5035130;28;20205;-77
2020/12/21 07:39:10;;;;;;;6.78;1.90;;;6.90;99.90;;;;;;5034641;28;20278;-77
2020/12/21 07:41:37;;;;;;;7.45;2.17;;;7.00;99.90;;;;;;5015850;28;20200;-77
2020/12/21 07:44:07;;;;;;;12.48;4.00;;;7.00;99.90;;;;;;5014927;28;20204;-78
2020/12/21 07:46:43;;;;;;;4.90;1.88;;;7.00;99.90;;;;;;5015131;28;20195;-77
2020/12/21 07:49:10;;;;;;;7.90;2.83;;;7.10;99.90;;;;;;5028750;28;20207;-78
2020/12/21 07:51:39;;;;;;;8.73;2.70;;;7.10;99.90;;;;;;5034799;28;20192;-78
2020/12/21 07:54:07;;;;;;;6.75;2.47;;;7.10;99.90;;;;;;5034808;28;20209;-77
2020/12/21 07:56:33;;;;;;;6.07;2.58;;;7.10;99.90;;;;;;5034827;28;20199;-77
2020/12/21 07:59:15;;;;;;;10.48;2.10;;;7.10;99.90;;;;;;5034809;28;20241;-77
2020/12/21 08:01:41;;;;;;;9.77;2.25;;;7.10;99.90;;;;;;5035016;28;20226;-77
2020/12/21 08:04:14;;;;;;;8.85;2.78;;;7.10;99.90;;;;;;5034410;28;20253;-77
2020/12/21 08:06:41;;;;;;;5.50;2.03;;;7.20;99.90;;;;;;5034368;28;20639;-77
2020/12/21 08:09:09;;;;;;;4.13;2.30;;;7.20;99.90;;;;;;5034782;28;20207;-78
2020/12/21 08:11:36;;;;;;;3.38;1.90;;;7.30;99.90;;;;;;5034175;28;20203;-77
2020/12/21 08:14:02;;;;;;;5.43;1.83;;;7.30;99.90;;;;;;5034126;28;20191;-77
2020/12/21 08:16:29;;;;;;;6.68;2.60;;;7.40;99.90;;;;;;5033622;28;20225;-76
2020/12/21 08:18:55;;;;;;;6.18;2.03;;;7.40;99.90;;;;;;5033859;28;20215;-77
2020/12/21 08:21:23;;;;;;;3.60;2.25;;;7.40;99.90;;;;;;5034654;28;20393;-77
2020/12/21 08:23:53;;;;;;;6.53;2.00;;;7.50;99.90;;;;;;5034621;28;20640;-77
2020/12/21 08:26:21;;;;;;;5.55;2.33;;;7.50;99.90;;;;;;5033594;28;20203;-77
2020/12/21 08:28:49;;;;;;;4.65;1.85;;;7.50;99.90;;;;;;5034046;28;20581;-78
2020/12/21 08:31:18;;;;;;;6.32;2.60;;;7.60;99.90;;;;;;5032943;28;20187;-78
2020/12/21 08:33:57;;;;;;;10.73;3.08;;;7.70;99.90;;;;;;5032697;28;20202;-77
2020/12/21 08:36:26;;;;;;;6.45;2.53;;;7.70;99.90;;;;;;5033744;28;20187;-77
2020/12/21 08:38:53;;;;;;;3.50;1.90;;;7.70;99.90;;;;;;5034222;28;20219;-77
2020/12/21 08:41:21;;;;;;;4.22;2.22;;;7.80;99.90;;;;;;5033024;28;20197;-76
2020/12/21 08:43:47;;;;;;;3.40;2.10;;;7.80;99.90;;;;;;5034080;28;20636;-77
2020/12/21 08:46:14;;;;;;;6.70;2.47;;;7.90;99.90;;;;;;5032873;28;20211;-78
2020/12/21 08:48:43;;;;;;;4.10;2.25;;;7.90;99.90;;;;;;5033249;28;20219;-77
2020/12/21 08:51:10;;;;;;;8.07;2.35;;;7.90;99.90;;;;;;5033650;28;20198;-75
2020/12/21 08:53:37;;;;;;;7.43;2.50;;;7.90;99.90;;;;;;5034033;28;20203;-77
2020/12/21 08:56:14;;;;;;;6.10;1.83;;;8.00;99.90;;;;;;5033491;28;20656;-77
2020/12/21 08:58:41;;;;;;;4.38;1.75;;;8.00;99.90;;;;;;5033378;28;20305;-78
2020/12/21 09:01:09;;;;;;;4.70;1.65;;;8.00;99.90;;;;;;5034760;28;20199;-77
2020/12/21 09:03:35;;;;;;;6.78;2.20;;;8.00;99.90;;;;;;5032968;28;20231;-77
2020/12/21 09:06:02;;;;;;;8.25;2.13;;;8.10;99.90;;;;;;5032810;28;20827;-77
2020/12/21 09:08:29;;;;;;;4.22;1.95;;;8.10;99.90;;;;;;5033768;28;20273;-77
2020/12/21 09:10:56;;;;;;;5.80;1.83;;;8.10;99.90;;;;;;5034461;28;20208;-77
2020/12/21 09:13:22;;;;;;;5.22;1.95;;;8.20;99.90;;;;;;5033907;28;20691;-77
2020/12/21 09:15:49;;;;;;;8.05;2.03;;;8.20;99.90;;;;;;5033795;28;20204;-77
2020/12/21 09:18:17;;;;;;;4.97;1.90;;;8.20;99.90;;;;;;5032611;28;20273;-76
2020/12/21 09:20:44;;;;;;;4.20;2.47;;;8.20;99.90;;;;;;5033540;28;20253;-78
2020/12/21 09:23:10;;;;;;;13.55;2.55;;;8.20;99.90;;;;;;5032593;28;20187;-77
2020/12/21 09:25:36;;;;;;;5.88;2.03;;;8.30;99.90;;;;;;5032018;28;20203;-78
2020/12/21 09:28:03;;;;;;;5.68;1.83;;;8.20;99.90;;;;;;5032461;28;20211;-79
2020/12/21 09:30:31;;;;;;;3.40;2.25;;;8.30;99.90;;;;;;5032531;28;20188;-78
2020/12/21 09:32:58;;;;;;;4.53;1.90;;;8.30;99.90;;;;;;5032942;28;20192;-78
2020/12/21 09:35:25;;;;;;;8.68;3.17;;;8.30;99.90;;;;;;5033233;28;20241;-77
2020/12/21 09:37:51;;;;;;;5.72;2.47;;;8.30;99.90;;;;;;5033839;28;20310;-78
2020/12/21 09:40:17;;;;;;;5.03;1.83;;;8.30;99.90;;;;;;5091543;22;20679;-81
2020/12/21 09:42:44;;;;;;;7.80;2.35;;;8.40;99.90;;;;;;5016016;28;20290;-78
2020/12/21 09:45:10;;;;;;;4.78;1.70;;;8.40;99.90;;;;;;5041994;28;20203;-78
2020/12/21 09:47:36;;;;;;;6.90;1.92;;;8.40;99.90;;;;;;5042451;28;20191;-79
2020/12/21 09:50:04;;;;;;;6.90;2.47;;;8.40;99.90;;;;;;5045063;28;20197;-80
2020/12/21 09:52:30;;;;;;;2.63;1.65;;;8.50;99.90;;;;;;5046118;28;20202;-81
2020/12/21 09:54:56;;;;;;;2.60;1.88;;;8.50;99.90;;;;;;5045611;28;20183;-79
2020/12/21 09:57:22;;;;;;;7.05;1.80;;;8.60;99.90;;;;;;5044651;28;20192;-82
2020/12/21 09:59:49;;;;;;;5.35;2.20;;;8.60;99.90;;;;;;5044559;28;20208;-77
2020/12/21 10:02:15;;;;;;;6.07;1.95;;;8.60;99.90;;;;;;5048254;28;20196;-81
2020/12/21 10:04:41;;;;;;;8.57;1.90;;;8.60;99.90;;;;;;5051990;28;20189;-80
2020/12/21 10:07:08;;;;;;;5.72;1.90;;;8.60;99.90;;;;;;5044706;28;20196;-81
2020/12/21 10:09:35;;;;;;;3.78;1.65;;;8.60;99.90;;;;;;5045020;28;20302;-79
2020/12/21 10:12:01;;;;;;;4.47;1.70;;;8.70;99.90;;;;;;5060352;28;20282;-82
2020/12/21 10:14:27;;;;;;;10.15;2.80;;;8.70;99.90;;;;;;5045336;28;20193;-81
2020/12/21 10:16:53;;;;;;;3.65;1.55;;;8.70;99.90;;;;;;5048542;28;20239;-80
2020/12/21 10:19:20;;;;;;;11.55;2.00;;;8.70;99.90;;;;;;5048411;28;20241;-79
2020/12/21 10:21:47;;;;;;;5.05;2.28;;;8.60;99.90;;;;;;5048890;28;20212;-82
2020/12/21 10:24:14;;;;;;;10.27;2.20;;;8.60;99.90;;;;;;5048089;28;20205;-79
2020/12/21 10:26:41;;;;;;;11.30;2.50;;;8.60;99.90;;;;;;5047359;28;20739;-82
2020/12/21 10:29:08;;;;;;;9.70;2.72;;;8.60;99.90;;;;;;5048511;28;20200;-80
2020/12/21 10:31:34;;;;;;;2.72;1.85;;;8.60;99.90;;;;;;5048631;28;20217;-80
2020/12/21 10:34:00;;;;;;;9.02;2.00;;;8.60;99.90;;;;;;5047006;28;20197;-81
2020/12/21 10:36:27;;;;;;;4.95;2.13;;;8.60;99.90;;;;;;5046696;28;20225;-82
2020/12/21 10:38:53;;;;;;;4.72;2.15;;;8.60;99.90;;;;;;5046708;28;20207;-80
2020/12/21 10:41:20;;;;;;;8.52;3.70;;;8.60;99.90;;;;;;5052125;28;20230;-82
2020/12/21 10:43:46;;;;;;;3.95;2.05;;;8.60;99.90;;;;;;5047220;28;20195;-80
2020/12/21 10:46:20;;;;;;;12.52;2.65;;;8.60;99.90;;;;;;5046904;28;20206;-79
2020/12/21 10:48:47;;;;;;;8.05;2.03;;;8.60;99.90;;;;;;5047753;28;20181;-81
2020/12/21 10:51:13;;;;;;;6.28;2.53;;;8.70;99.90;;;;;;5047564;28;20224;-81
2020/12/21 10:53:39;;;;;;;4.70;1.85;;;8.80;99.90;;;;;;5047573;28;20204;-81
2020/12/21 10:56:10;;;;;;;5.68;2.40;;;8.90;99.90;;;;;;5047330;28;20211;-80
2020/12/21 10:58:40;;;;;;;5.28;2.30;;;8.90;99.90;;;;;;5031891;28;20227;-82
2020/12/21 11:01:07;;;;;;;6.05;2.45;;;8.90;99.90;;;;;;5039481;28;20223;-82
2020/12/21 11:03:34;;;;;;;3.45;2.28;;;9.00;99.90;;;;;;5047810;28;20196;-82
2020/12/21 11:06:01;;;;;;;8.55;2.83;;;8.90;99.90;;;;;;5047326;28;20206;-82
2020/12/21 11:08:27;;;;;;;5.28;2.17;;;8.90;99.90;;;;;;5047517;28;20191;-79
2020/12/21 11:10:53;;;;;;;9.05;2.78;;;8.90;99.90;;;;;;5053534;28;20255;-81
2020/12/21 11:13:20;;;;;;;4.90;1.60;;;8.90;99.90;;;;;;5047702;28;20662;-80
2020/12/21 11:15:47;;;;;;;4.03;1.75;;;9.00;99.90;;;;;;5047566;28;20560;-78
2020/12/21 11:18:13;;;;;;;9.82;2.05;;;9.00;99.90;;;;;;5046959;28;20231;-82
2020/12/21 11:20:39;;;;;;;5.22;1.98;;;9.00;99.90;;;;;;5047418;28;20223;-81
2020/12/21 11:23:05;;;;;;;9.45;2.03;;;9.00;99.90;;;;;;5047608;28;20199;-80
2020/12/21 11:25:32;;;;;;;7.55;3.05;;;9.00;99.90;;;;;;5046651;28;20196;-83
2020/12/21 11:27:59;;;;;;;6.57;2.17;;;9.10;99.90;;;;;;5045763;28;20207;-79
2020/12/21 11:30:25;;;;;;;5.88;2.00;;;9.20;99.90;;;;;;5046793;28;20243;-80
2020/12/21 11:32:53;;;;;;;6.50;1.80;;;9.30;99.90;;;;;;5045960;28;20198;-78
2020/12/21 11:35:19;;;;;;;6.75;2.63;;;9.40;99.90;;;;;;5047152;28;20334;-81
2020/12/21 11:37:45;;;;;;;6.35;2.05;;;9.50;99.90;;;;;;5046476;28;20200;-82
2020/12/21 11:40:12;;;;;;;7.50;2.65;;;9.60;99.90;;;;;;5047939;28;20226;-82
2020/12/21 11:42:38;;;;;;;7.68;2.10;;;9.60;99.90;;;;;;5050976;28;20197;-82
2020/12/21 11:45:05;;;;;;;3.30;1.60;;;9.50;99.90;;;;;;5046001;28;20226;-81
2020/12/21 11:47:34;;;;;;;3.95;1.67;;;9.60;99.90;;;;;;5046564;28;20203;-81
2020/12/21 11:50:01;;;;;;;6.78;1.80;;;9.70;99.90;;;;;;5046555;28;20628;-78
2020/12/21 11:52:30;;;;;;;7.00;2.67;;;9.60;99.90;;;;;;5046321;28;20203;-80
2020/12/21 11:54:56;;;;;;;5.75;2.17;;;9.50;99.90;;;;;;5046692;28;20198;-82
2020/12/21 11:57:22;;;;;;;4.32;2.22;;;9.40;99.90;;;;;;5045908;28;20205;-83
2020/12/21 11:59:49;;;;;;;5.28;3.10;;;9.30;99.90;;;;;;5046057;28;20219;-82
2020/12/21 12:02:15;;;;;;;9.13;4.35;;;9.20;99.90;;;;;;5046089;28;20205;-81
2020/12/21 12:04:41;;;;;;;13.57;6.20;;;9.10;99.90;;;;;;5045617;28;20255;-84
2020/12/21 12:07:08;;;;;;;11.00;6.45;;;9.00;99.90;;;;;;5044359;28;20209;-81
2020/12/21 12:09:35;;;;;;;14.05;8.15;;;8.90;99.90;;;;;;5045167;28;20216;-81
2020/12/21 12:12:01;;;;;;;12.20;8.95;;;8.90;99.90;;;;;;5049904;28;20246;-83
2020/12/21 12:14:28;;;;;;;14.00;7.57;;;8.90;99.90;;;;;;5043893;28;20201;-82
2020/12/21 12:16:55;;;;;;;6.85;5.40;;;8.80;99.90;;;;;;5043248;28;20198;-81
2020/12/21 12:19:22;;;;;;;15.25;4.05;;;8.70;99.90;;;;;;5043696;28;20222;-84
2020/12/21 12:21:49;;;;;;;7.95;3.78;;;8.70;99.90;;;;;;5043440;28;20220;-78
2020/12/21 12:24:16;;;;;;;8.20;3.50;;;8.70;99.90;;;;;;5043454;28;20206;-81
2020/12/21 12:26:42;;;;;;;3.58;2.55;;;8.60;99.90;;;;;;5041529;28;20258;-81
2020/12/21 12:29:09;;;;;;;6.47;2.95;;;8.50;99.90;;;;;;5023882;28;20193;-82
2020/12/21 12:31:35;;;;;;;5.40;2.92;;;8.50;99.90;;;;;;5042575;28;20224;-78
2020/12/21 12:34:01;;;;;;;6.53;2.22;;;8.50;99.90;;;;;;5042676;28;20259;-82
2020/12/21 12:36:28;;;;;;;5.20;2.60;;;8.50;99.90;;;;;;5042127;28;20204;-80
2020/12/21 12:38:55;;;;;;;3.78;2.75;;;8.50;99.90;;;;;;5041702;28;20214;-81
2020/12/21 12:41:24;;;;;;;4.90;2.85;;;8.50;99.90;;;;;;5046393;28;20223;-81
2020/12/21 12:43:50;;;;;;;4.03;2.55;;;8.50;99.90;;;;;;5041868;28;20197;-81
2020/12/21 12:46:17;;;;;;;7.93;2.67;;;8.50;99.90;;;;;;5042137;28;20198;-82
2020/12/21 12:48:43;;;;;;;4.65;2.88;;;8.50;99.90;;;;;;5043819;28;20192;-81
2020/12/21 12:51:09;;;;;;;8.13;2.95;;;8.60;99.90;;;;;;5044008;28;20496;-81
2020/12/21 12:53:36;;;;;;;6.43;3.38;;;8.60;99.90;;;;;;5043365;28;20198;-82
2020/12/21 12:56:05;;;;;;;4.80;2.95;;;8.60;99.90;;;;;;5041617;28;20663;-83
2020/12/21 12:58:32;;;;;;;6.60;3.20;;;8.60;99.90;;;;;;5043546;28;20223;-81